Time;durP1;ratioP1;P1;durP2;ratioP2;P2;SDS_P1;SDS_P2;PMS_P1;PMS_P2;Temp;Humidity;BMP_temperature;BMP_pressure;BME280_temperature;BME280_humidity;BME280_pressure;Samples;Min_cycle;Max_cycle;Signal;HPM_P1;HPM_P2
2023/08/21 00:02:12;;;;;;;5.35;3.95;;;16.60;99.90;;;;;;5005798;28;20033;-74
2023/08/21 00:04:37;;;;;;;7.57;4.15;;;16.50;99.90;;;;;;5004085;28;20389;-74
2023/08/21 00:07:03;;;;;;;9.32;4.57;;;16.60;99.90;;;;;;5030904;28;20061;-74
2023/08/21 00:14:39;;;;;;;8.65;3.75;;;16.60;99.90;;;;;;5980379;22;20397;-72
2023/08/21 00:17:05;;;;;;;7.53;4.22;;;16.50;99.90;;;;;;5010194;28;20479;-72
2023/08/21 00:19:32;;;;;;;6.03;3.35;;;16.50;99.90;;;;;;4995933;28;20044;-72
2023/08/21 00:29:43;;;;;;;8.13;4.75;;;16.30;99.90;;;;;;5829398;22;20166;-72
2023/08/21 00:32:09;;;;;;;10.23;4.80;;;16.30;99.90;;;;;;5007548;28;20504;-72
2023/08/21 00:34:34;;;;;;;6.72;4.30;;;16.10;99.90;;;;;;5011359;28;20049;-72
2023/08/21 00:37:00;;;;;;;8.40;4.75;;;16.10;99.90;;;;;;4997635;28;20500;-72
2023/08/21 00:39:26;;;;;;;7.63;4.45;;;16.10;99.90;;;;;;5013027;28;20040;-71
2023/08/21 00:47:11;;;;;;;5.82;4.25;;;16.10;99.90;;;;;;5240078;22;20046;-73
2023/08/21 00:49:39;;;;;;;6.03;4.15;;;16.00;99.90;;;;;;4993906;28;20046;-73
2023/08/21 00:52:08;;;;;;;8.13;3.35;;;15.90;99.90;;;;;;4966194;28;20093;-72
2023/08/21 00:54:34;;;;;;;7.55;4.80;;;15.80;99.90;;;;;;4959456;28;20153;-72
2023/08/21 00:57:00;;;;;;;8.35;4.57;;;15.70;99.90;;;;;;4957783;28;20054;-72
2023/08/21 01:04:36;;;;;;;10.10;4.78;;;15.80;99.90;;;;;;5110492;23;20130;-72
2023/08/21 01:07:04;;;;;;;10.50;4.60;;;15.80;99.90;;;;;;5028075;28;20430;-72
2023/08/21 01:12:46;;;;;;;6.07;2.80;;;15.70;99.90;;;;;;4998485;28;20052;-74
2023/08/21 01:15:13;;;;;;;12.75;4.90;;;15.50;99.90;;;;;;5007576;28;20037;-74
2023/08/21 01:17:40;;;;;;;8.73;4.45;;;15.50;99.90;;;;;;5022497;22;20036;-68
2023/08/21 01:20:10;;;;;;;6.13;3.67;;;15.50;99.90;;;;;;5028253;28;20029;-68
2023/08/21 01:22:38;;;;;;;6.30;3.05;;;15.30;99.90;;;;;;5007722;28;20407;-68
2023/08/21 01:25:05;;;;;;;10.10;3.60;;;15.30;99.90;;;;;;5015645;28;20042;-67
2023/08/21 01:27:31;;;;;;;4.75;3.10;;;15.30;99.90;;;;;;5025087;28;20037;-67
2023/08/21 01:29:57;;;;;;;7.72;3.13;;;15.30;99.90;;;;;;5015299;28;20038;-68
2023/08/21 01:32:36;;;;;;;3.83;2.50;;;15.20;99.90;;;;;;5033345;28;20484;-68
2023/08/21 01:35:04;;;;;;;4.65;2.65;;;15.00;99.90;;;;;;5033786;28;20064;-68
2023/08/21 01:37:30;;;;;;;5.47;2.88;;;14.70;99.90;;;;;;5028334;28;20152;-68
2023/08/21 01:39:58;;;;;;;5.30;2.80;;;14.60;99.90;;;;;;5025860;28;20037;-67
2023/08/21 01:42:24;;;;;;;6.40;3.67;;;14.70;99.90;;;;;;5033017;28;20044;-68
2023/08/21 01:44:50;;;;;;;5.07;3.22;;;14.80;99.90;;;;;;5014883;28;20396;-68
2023/08/21 01:47:15;;;;;;;3.90;3.10;;;14.80;99.90;;;;;;5014751;28;20025;-67
2023/08/21 01:49:41;;;;;;;6.50;2.38;;;14.90;99.90;;;;;;5033229;28;20041;-68
2023/08/21 01:52:06;;;;;;;6.72;2.70;;;14.90;99.90;;;;;;5011927;28;20029;-67
2023/08/21 01:54:32;;;;;;;4.63;2.38;;;14.90;99.90;;;;;;5023614;28;20546;-68
2023/08/21 01:56:58;;;;;;;4.32;2.50;;;14.80;99.90;;;;;;5024507;28;20512;-67
2023/08/21 01:59:24;;;;;;;5.88;2.63;;;14.80;99.90;;;;;;5032281;28;20064;-67
2023/08/21 02:01:49;;;;;;;16.73;3.42;;;14.70;99.90;;;;;;5022990;28;20120;-68
2023/08/21 02:04:15;;;;;;;5.10;2.90;;;14.70;99.90;;;;;;5027234;28;20124;-68
2023/08/21 02:06:41;;;;;;;3.17;2.50;;;14.70;99.90;;;;;;5015031;28;20051;-68
2023/08/21 02:09:07;;;;;;;14.35;2.97;;;14.80;99.90;;;;;;5030565;28;20033;-67
2023/08/21 02:11:32;;;;;;;5.28;3.80;;;14.70;99.90;;;;;;5010576;28;20125;-67
2023/08/21 02:13:58;;;;;;;5.80;2.78;;;14.80;99.90;;;;;;5024092;28;20095;-68
2023/08/21 02:16:23;;;;;;;8.90;4.97;;;14.80;99.90;;;;;;5032376;28;20037;-68
2023/08/21 02:18:49;;;;;;;6.72;3.33;;;14.80;99.90;;;;;;5019074;28;20439;-68
2023/08/21 02:21:15;;;;;;;5.50;3.90;;;14.70;99.90;;;;;;5026446;28;20037;-69
2023/08/21 02:23:40;;;;;;;8.50;3.67;;;14.60;99.90;;;;;;5014740;28;20061;-69
2023/08/21 02:26:06;;;;;;;5.78;3.05;;;14.60;99.90;;;;;;5024445;28;20030;-69
2023/08/21 02:28:31;;;;;;;5.93;2.50;;;14.60;99.90;;;;;;5009028;28;20025;-69
2023/08/21 02:30:57;;;;;;;4.72;2.67;;;14.60;99.90;;;;;;5014318;28;20045;-69
2023/08/21 02:33:23;;;;;;;5.45;2.75;;;14.50;99.90;;;;;;5029190;28;20430;-69
2023/08/21 02:35:48;;;;;;;5.43;3.22;;;14.30;99.90;;;;;;5009127;28;20037;-69
2023/08/21 02:38:14;;;;;;;7.78;3.30;;;14.30;99.90;;;;;;5013791;28;20050;-69
2023/08/21 02:40:39;;;;;;;6.45;3.45;;;14.30;99.90;;;;;;5032487;28;20113;-69
2023/08/21 02:43:05;;;;;;;33.35;3.45;;;14.30;99.90;;;;;;5001195;28;20040;-69
2023/08/21 02:45:31;;;;;;;4.82;2.85;;;14.30;99.90;;;;;;5010190;28;20484;-69
2023/08/21 02:47:56;;;;;;;6.50;3.20;;;14.30;99.90;;;;;;5013707;28;20128;-69
2023/08/21 02:50:22;;;;;;;10.52;4.63;;;14.30;99.90;;;;;;5021773;28;20037;-69
2023/08/21 02:52:48;;;;;;;7.88;4.40;;;14.40;99.90;;;;;;5018887;28;20395;-69
2023/08/21 02:55:14;;;;;;;10.95;5.63;;;14.30;99.90;;;;;;5031812;28;20037;-69
2023/08/21 02:57:39;;;;;;;7.22;4.82;;;14.40;99.90;;;;;;5031590;28;20091;-69
2023/08/21 03:00:07;;;;;;;10.02;5.00;;;14.40;99.90;;;;;;4996728;28;20060;-69
2023/08/21 03:02:33;;;;;;;7.03;4.13;;;14.40;99.90;;;;;;5010473;28;20095;-69
2023/08/21 03:04:59;;;;;;;6.30;3.75;;;14.30;99.90;;;;;;5031926;28;20037;-69
2023/08/21 03:07:24;;;;;;;4.28;2.70;;;14.30;99.90;;;;;;5003797;28;20037;-69
2023/08/21 03:09:50;;;;;;;4.97;2.88;;;14.10;99.90;;;;;;5013094;28;20043;-69
2023/08/21 03:12:16;;;;;;;2.40;2.10;;;14.00;99.90;;;;;;5031378;28;20029;-69
2023/08/21 03:14:41;;;;;;;4.78;2.40;;;13.90;99.90;;;;;;4993553;28;20046;-69
2023/08/21 03:17:07;;;;;;;4.88;2.90;;;13.70;99.90;;;;;;5025964;28;20068;-68
2023/08/21 03:19:33;;;;;;;4.78;3.42;;;13.80;99.90;;;;;;5027472;28;20040;-69
2023/08/21 03:21:59;;;;;;;5.95;3.60;;;13.90;99.90;;;;;;5030620;28;20045;-69
2023/08/21 03:24:24;;;;;;;4.88;2.90;;;14.00;99.90;;;;;;5014385;28;20417;-69
2023/08/21 03:26:50;;;;;;;3.97;2.97;;;14.00;99.90;;;;;;5026565;28;20168;-68
2023/08/21 03:29:16;;;;;;;5.75;4.18;;;14.00;99.90;;;;;;5012747;28;20040;-69
2023/08/21 03:31:41;;;;;;;5.60;4.10;;;14.00;99.90;;;;;;5006881;28;20603;-69
2023/08/21 03:34:08;;;;;;;5.97;3.65;;;14.00;99.90;;;;;;5032478;28;20046;-69
2023/08/21 03:36:34;;;;;;;7.30;3.50;;;14.00;99.90;;;;;;5031106;28;20052;-69
2023/08/21 03:39:01;;;;;;;7.13;4.20;;;14.00;99.90;;;;;;5012805;28;20041;-69
2023/08/21 03:41:27;;;;;;;6.43;3.60;;;14.00;99.90;;;;;;5017605;28;20033;-69
2023/08/21 03:43:53;;;;;;;8.65;4.18;;;13.90;99.90;;;;;;5026320;28;20057;-69
2023/08/21 03:46:18;;;;;;;5.57;3.45;;;13.90;99.90;;;;;;5011216;28;20030;-69
2023/08/21 03:48:44;;;;;;;7.07;3.47;;;13.90;99.90;;;;;;4992667;28;20077;-69
2023/08/21 03:51:10;;;;;;;3.78;2.97;;;13.90;99.90;;;;;;4993324;28;20034;-69
2023/08/21 03:53:35;;;;;;;4.32;2.63;;;13.80;99.90;;;;;;5012090;28;20120;-69
2023/08/21 03:56:01;;;;;;;4.82;3.30;;;13.80;99.90;;;;;;5030803;28;20487;-68
2023/08/21 03:58:26;;;;;;;4.32;2.80;;;13.80;99.90;;;;;;4996532;28;20120;-69
2023/08/21 04:00:53;;;;;;;3.72;2.30;;;13.80;99.90;;;;;;5017364;28;20052;-68
2023/08/21 04:03:19;;;;;;;5.95;2.53;;;13.60;99.90;;;;;;5024914;28;20470;-68
2023/08/21 04:05:44;;;;;;;8.10;3.88;;;13.50;99.90;;;;;;5025048;28;20069;-68
2023/08/21 04:08:10;;;;;;;5.38;3.10;;;13.50;99.90;;;;;;5030807;28;20045;-68
2023/08/21 04:10:35;;;;;;;4.38;2.88;;;13.60;99.90;;;;;;5026527;28;20113;-67
2023/08/21 04:13:01;;;;;;;4.78;2.22;;;13.50;99.90;;;;;;5023662;28;20037;-68
2023/08/21 04:15:27;;;;;;;34.67;4.45;;;13.50;99.90;;;;;;5023166;28;20093;-68
2023/08/21 04:17:53;;;;;;;4.75;2.30;;;13.40;99.90;;;;;;5042218;28;20095;-68
2023/08/21 04:20:21;;;;;;;9.57;3.55;;;13.40;99.90;;;;;;5034781;28;20045;-69
2023/08/21 04:22:47;;;;;;;9.00;3.28;;;13.40;99.90;;;;;;5022389;28;20076;-69
2023/08/21 04:25:13;;;;;;;6.45;3.20;;;13.40;99.90;;;;;;5019945;28;20112;-69
2023/08/21 04:27:39;;;;;;;4.10;3.30;;;13.40;99.90;;;;;;5023686;28;20112;-69
2023/08/21 04:30:05;;;;;;;3.92;2.63;;;13.30;99.90;;;;;;5006521;28;20037;-69
2023/08/21 04:32:31;;;;;;;2.47;1.73;;;13.20;99.90;;;;;;5016317;28;20057;-69
2023/08/21 04:34:57;;;;;;;7.28;1.67;;;13.20;99.90;;;;;;5000024;28;20064;-69
2023/08/21 04:37:23;;;;;;;1.52;1.42;;;13.10;99.90;;;;;;5033991;28;20033;-69
2023/08/21 04:39:55;;;;;;;1.85;1.70;;;13.10;99.90;;;;;;5030389;28;20444;-69
2023/08/21 04:42:21;;;;;;;4.38;2.30;;;13.20;99.90;;;;;;5005281;28;20049;-69
2023/08/21 04:44:47;;;;;;;5.10;2.80;;;13.20;99.90;;;;;;5033557;28;20495;-69
2023/08/21 04:47:23;;;;;;;7.03;2.63;;;13.20;99.90;;;;;;5025550;28;20038;-69
2023/08/21 04:49:52;;;;;;;16.58;2.22;;;13.20;99.90;;;;;;5021864;28;20052;-69
2023/08/21 04:52:18;;;;;;;3.65;1.75;;;13.20;99.90;;;;;;5010858;28;20492;-69
2023/08/21 04:54:44;;;;;;;2.78;1.88;;;13.30;99.90;;;;;;5033658;28;20120;-69
2023/08/21 04:57:09;;;;;;;4.68;2.60;;;13.30;99.90;;;;;;5029831;28;20124;-69
2023/08/21 04:59:36;;;;;;;6.75;2.70;;;13.30;99.90;;;;;;5024657;28;20487;-69
2023/08/21 05:02:02;;;;;;;6.15;3.70;;;13.40;99.90;;;;;;5034021;28;20041;-69
2023/08/21 05:04:27;;;;;;;5.97;2.60;;;13.40;99.90;;;;;;5019649;28;20159;-69
2023/08/21 05:06:53;;;;;;;3.95;2.60;;;13.50;99.90;;;;;;5033140;28;20403;-69
2023/08/21 05:09:18;;;;;;;6.07;2.80;;;13.40;99.90;;;;;;5020535;28;20045;-69
2023/08/21 05:11:44;;;;;;;9.65;2.70;;;13.30;99.90;;;;;;5012138;28;20574;-69
2023/08/21 05:14:10;;;;;;;7.60;2.80;;;13.40;99.90;;;;;;5012179;28;20045;-68
2023/08/21 05:16:35;;;;;;;5.00;3.03;;;13.50;99.90;;;;;;5018629;28;20041;-69
2023/08/21 05:19:01;;;;;;;6.32;2.90;;;13.50;99.90;;;;;;5015669;28;20064;-68
2023/08/21 05:21:27;;;;;;;7.82;2.70;;;13.50;99.90;;;;;;5026061;28;20095;-69
2023/08/21 05:23:53;;;;;;;5.30;2.65;;;13.60;99.90;;;;;;5017895;28;20049;-69
2023/08/21 05:26:19;;;;;;;4.15;2.58;;;13.60;99.90;;;;;;5032171;28;20121;-68
2023/08/21 05:28:45;;;;;;;3.42;2.60;;;13.60;99.90;;;;;;5024034;28;20045;-68
2023/08/21 05:31:11;;;;;;;4.35;3.03;;;13.60;99.90;;;;;;5016432;28;20044;-69
2023/08/21 05:33:37;;;;;;;7.20;3.83;;;13.60;99.90;;;;;;5027576;28;20038;-70
2023/08/21 05:36:03;;;;;;;7.07;3.92;;;13.70;99.90;;;;;;4996340;28;20046;-68
2023/08/21 05:38:28;;;;;;;6.68;3.72;;;13.90;99.90;;;;;;5016622;28;20441;-68
2023/08/21 05:40:58;;;;;;;7.05;4.35;;;14.00;99.90;;;;;;5005226;28;20037;-67
2023/08/21 05:43:26;;;;;;;8.32;4.80;;;14.10;99.90;;;;;;5020935;28;20049;-66
2023/08/21 05:45:52;;;;;;;8.90;4.32;;;14.10;99.90;;;;;;5022924;28;20410;-67
2023/08/21 05:48:20;;;;;;;5.95;4.25;;;14.20;99.90;;;;;;5024186;28;20095;-67
2023/08/21 05:50:51;;;;;;;9.73;5.05;;;14.30;99.90;;;;;;5008867;28;20033;-67
2023/08/21 05:53:17;;;;;;;6.75;4.53;;;14.50;99.90;;;;;;4984360;28;20141;-68
2023/08/21 05:55:43;;;;;;;7.82;4.90;;;14.60;99.90;;;;;;5021054;28;20072;-67
2023/08/21 05:58:08;;;;;;;7.75;4.50;;;14.70;99.90;;;;;;5024128;28;20064;-68
2023/08/21 06:00:35;;;;;;;7.40;4.70;;;14.80;99.90;;;;;;5026044;28;20506;-68
2023/08/21 06:03:01;;;;;;;9.70;4.30;;;14.90;99.90;;;;;;5006018;28;20512;-68
2023/08/21 06:05:26;;;;;;;11.18;5.10;;;15.00;99.90;;;;;;5004409;28;20032;-66
2023/08/21 06:07:52;;;;;;;9.35;5.32;;;15.10;99.90;;;;;;5022664;28;20667;-66
2023/08/21 06:10:18;;;;;;;10.40;5.88;;;15.30;99.90;;;;;;5023183;28;20049;-68
2023/08/21 06:12:43;;;;;;;11.07;6.15;;;15.40;99.90;;;;;;5002268;28;20050;-67
2023/08/21 06:15:10;;;;;;;11.32;6.32;;;15.60;99.90;;;;;;5014577;28;20389;-67
2023/08/21 06:17:36;;;;;;;11.50;6.70;;;15.70;99.90;;;;;;5032326;28;20068;-67
2023/08/21 06:20:05;;;;;;;10.13;6.32;;;15.80;99.90;;;;;;5009804;28;20549;-67
2023/08/21 06:22:31;;;;;;;13.05;6.90;;;15.90;99.90;;;;;;5028959;28;20731;-68
2023/08/21 06:24:56;;;;;;;11.75;6.65;;;16.00;99.90;;;;;;5014406;28;20053;-73
2023/08/21 06:27:22;;;;;;;15.38;7.22;;;16.00;99.90;;;;;;5008861;28;20038;-70
2023/08/21 06:29:48;;;;;;;14.35;7.10;;;16.10;99.90;;;;;;5013658;28;20141;-72
2023/08/21 06:32:13;;;;;;;13.63;6.55;;;16.30;99.90;;;;;;5011212;28;20041;-71
2023/08/21 06:34:39;;;;;;;14.70;7.72;;;16.40;99.90;;;;;;5029324;28;20045;-70
2023/08/21 06:37:04;;;;;;;10.55;7.35;;;16.50;99.90;;;;;;5016102;28;20041;-69
2023/08/21 06:39:31;;;;;;;12.90;7.35;;;16.60;99.90;;;;;;5024919;28;20116;-68
2023/08/21 06:41:57;;;;;;;14.25;7.65;;;16.70;99.90;;;;;;5029436;28;20068;-69
2023/08/21 06:44:22;;;;;;;16.13;8.32;;;16.80;99.90;;;;;;5001390;28;20057;-69
2023/08/21 06:46:48;;;;;;;20.15;8.10;;;16.90;99.90;;;;;;5025029;28;20073;-67
2023/08/21 06:49:14;;;;;;;20.15;8.23;;;17.00;99.90;;;;;;5028349;28;20132;-68
2023/08/21 06:51:39;;;;;;;15.77;7.47;;;17.10;99.90;;;;;;5008769;28;20072;-67
2023/08/21 06:54:05;;;;;;;14.65;7.20;;;17.20;99.90;;;;;;5024153;28;20033;-67
2023/08/21 06:56:31;;;;;;;16.77;8.00;;;17.40;99.90;;;;;;5024964;28;20041;-67
2023/08/21 06:58:57;;;;;;;12.63;7.10;;;17.40;99.90;;;;;;5000956;28;20780;-67
2023/08/21 07:01:22;;;;;;;15.35;7.30;;;17.50;99.90;;;;;;5019729;28;20124;-67
2023/08/21 07:03:48;;;;;;;13.88;6.88;;;17.60;99.90;;;;;;5018688;28;20069;-67
2023/08/21 07:06:13;;;;;;;12.23;7.63;;;17.70;99.90;;;;;;5027944;28;20044;-68
2023/08/21 07:08:40;;;;;;;13.55;7.03;;;17.80;99.90;;;;;;5027825;28;20125;-66
2023/08/21 07:11:07;;;;;;;14.52;7.63;;;17.80;99.90;;;;;;5020487;28;20033;-67
2023/08/21 07:13:33;;;;;;;11.98;7.28;;;17.90;99.90;;;;;;5018585;28;20091;-66
2023/08/21 07:16:02;;;;;;;14.05;6.60;;;18.00;99.90;;;;;;5024858;28;20033;-68
2023/08/21 07:18:28;;;;;;;13.70;7.05;;;18.00;99.90;;;;;;4995347;28;20088;-72
2023/08/21 07:20:54;;;;;;;12.60;6.80;;;18.10;99.90;;;;;;5010300;28;20051;-68
2023/08/21 07:23:19;;;;;;;11.10;6.80;;;18.20;99.90;;;;;;5021304;28;20038;-68
2023/08/21 07:25:45;;;;;;;14.52;6.93;;;18.30;99.90;;;;;;5024968;28;20037;-68
2023/08/21 07:28:11;;;;;;;14.52;7.43;;;18.30;99.90;;;;;;5030576;28;20480;-67
2023/08/21 07:30:39;;;;;;;11.07;6.55;;;18.40;99.90;;;;;;5028617;28;20042;-67
2023/08/21 07:33:05;;;;;;;16.13;7.10;;;18.50;99.90;;;;;;5022968;28;20120;-67
2023/08/21 07:35:32;;;;;;;12.75;6.60;;;18.60;99.90;;;;;;5017470;28;20072;-67
2023/08/21 07:37:58;;;;;;;13.90;6.68;;;18.70;99.90;;;;;;5014412;28;20041;-68
2023/08/21 07:40:23;;;;;;;11.38;5.80;;;18.80;99.90;;;;;;5031276;28;20033;-68
2023/08/21 07:42:49;;;;;;;9.00;6.07;;;18.80;99.90;;;;;;5022752;28;20503;-68
2023/08/21 07:45:15;;;;;;;16.33;5.47;;;19.00;99.90;;;;;;5006550;28;20479;-68
2023/08/21 07:47:40;;;;;;;9.82;6.03;;;19.10;99.90;;;;;;5008782;28;20040;-68
2023/08/21 07:50:07;;;;;;;11.30;5.88;;;19.20;99.90;;;;;;5021120;28;20488;-67
2023/08/21 07:52:33;;;;;;;10.52;5.55;;;19.40;99.90;;;;;;5023028;28;20042;-67
2023/08/21 07:55:00;;;;;;;11.85;4.63;;;19.50;99.90;;;;;;5005812;28;20070;-67
2023/08/21 07:57:26;;;;;;;10.25;4.10;;;19.50;99.90;;;;;;5001920;28;20080;-67
2023/08/21 07:59:52;;;;;;;10.50;4.20;;;19.60;99.90;;;;;;5027555;28;20626;-67
2023/08/21 08:02:18;;;;;;;10.00;4.82;;;19.60;99.90;;;;;;5022387;28;20120;-68
2023/08/21 08:04:43;;;;;;;10.35;4.43;;;19.70;99.90;;;;;;5005158;28;20045;-68
2023/08/21 08:07:09;;;;;;;9.65;5.00;;;19.70;99.90;;;;;;5013394;28;20036;-68
2023/08/21 08:09:35;;;;;;;10.90;4.88;;;19.80;99.90;;;;;;4997751;28;20069;-68
2023/08/21 08:12:01;;;;;;;9.57;5.72;;;20.00;99.90;;;;;;5001609;28;20041;-68
2023/08/21 08:14:27;;;;;;;8.30;5.35;;;20.20;99.90;;;;;;5003763;28;20041;-68
2023/08/21 08:16:52;;;;;;;8.30;4.65;;;20.20;99.90;;;;;;5032552;28;20090;-68
2023/08/21 08:19:18;;;;;;;9.48;5.00;;;20.20;99.90;;;;;;5033402;28;20048;-68
2023/08/21 08:21:44;;;;;;;12.77;4.80;;;20.30;99.90;;;;;;5034873;28;20400;-68
2023/08/21 08:24:09;;;;;;;10.88;4.50;;;20.40;99.90;;;;;;5005410;28;20093;-68
2023/08/21 08:26:35;;;;;;;6.80;3.28;;;20.30;99.90;;;;;;5032338;28;20033;-68
2023/08/21 08:29:01;;;;;;;6.80;3.30;;;20.40;99.90;;;;;;5033950;28;20029;-68
2023/08/21 08:31:27;;;;;;;7.72;3.40;;;20.40;99.90;;;;;;5034197;28;20074;-67
2023/08/21 08:33:53;;;;;;;9.88;4.68;;;20.40;99.90;;;;;;5010643;28;20076;-67
2023/08/21 08:36:20;;;;;;;7.30;2.75;;;20.40;99.90;;;;;;5033892;28;20533;-67
2023/08/21 08:38:45;;;;;;;6.97;2.92;;;20.60;99.90;;;;;;5029247;28;20088;-67
2023/08/21 08:41:24;;;;;;;8.07;3.10;;;20.60;99.90;;;;;;5029145;28;20030;-67
2023/08/21 08:43:51;;;;;;;7.53;3.38;;;20.70;99.90;;;;;;5028531;28;20034;-67
2023/08/21 08:46:17;;;;;;;7.63;3.22;;;20.70;99.90;;;;;;5034453;28;20491;-67
2023/08/21 08:48:43;;;;;;;9.63;3.30;;;20.80;99.90;;;;;;5033874;28;20052;-67
2023/08/21 08:51:09;;;;;;;10.50;3.42;;;20.90;99.90;;;;;;5028990;28;20029;-67
2023/08/21 08:53:36;;;;;;;8.95;3.08;;;21.00;99.90;;;;;;5027813;28;20048;-67
2023/08/21 08:56:02;;;;;;;5.93;2.80;;;21.10;99.90;;;;;;5027003;28;20045;-67
2023/08/21 08:58:29;;;;;;;11.43;2.78;;;21.10;99.90;;;;;;5022637;28;20450;-67
2023/08/21 09:00:54;;;;;;;6.55;2.90;;;21.20;99.90;;;;;;5033425;28;20060;-67
2023/08/21 09:03:20;;;;;;;7.93;2.95;;;21.20;99.90;;;;;;5033734;28;20484;-67
2023/08/21 09:05:48;;;;;;;5.43;2.47;;;21.20;99.90;;;;;;5034003;28;20076;-68
2023/08/21 09:08:14;;;;;;;8.10;3.03;;;21.30;99.90;;;;;;5027422;28;20084;-67
2023/08/21 09:10:41;;;;;;;6.15;2.58;;;21.40;99.90;;;;;;5015770;28;20037;-67
2023/08/21 09:13:18;;;;;;;8.45;2.80;;;21.40;99.90;;;;;;5033078;28;20045;-67
2023/08/21 09:15:47;;;;;;;6.43;2.72;;;21.60;99.90;;;;;;5011059;28;20041;-68
2023/08/21 09:18:14;;;;;;;6.28;2.50;;;21.70;99.90;;;;;;5028335;28;20038;-67
2023/08/21 09:20:40;;;;;;;7.20;2.78;;;21.70;99.90;;;;;;5033666;28;20048;-67
2023/08/21 09:23:06;;;;;;;7.85;2.60;;;21.90;99.90;;;;;;5033556;28;20100;-67
2023/08/21 09:25:37;;;;;;;5.82;2.70;;;22.10;99.90;;;;;;5022088;28;20037;-67
2023/08/21 09:28:07;;;;;;;;;;;22.30;99.90;;;;;;5008027;28;20399;-67
2023/08/21 09:30:47;;;;;;;6.68;3.13;;;22.40;99.90;;;;;;5029939;28;20531;-68
2023/08/21 09:33:13;;;;;;;7.25;3.28;;;22.50;99.90;;;;;;5026630;28;20065;-67
2023/08/21 09:35:42;;;;;;;7.10;3.20;;;22.50;99.90;;;;;;5024032;28;20096;-67
2023/08/21 09:38:08;;;;;;;5.90;2.40;;;22.50;99.90;;;;;;5012966;28;20048;-67
2023/08/21 09:40:34;;;;;;;8.07;3.15;;;22.50;99.90;;;;;;5012193;28;20038;-67
2023/08/21 09:42:59;;;;;;;6.32;3.00;;;22.50;99.90;;;;;;4995111;28;20038;-67
2023/08/21 09:45:27;;;;;;;6.65;2.88;;;22.50;99.90;;;;;;5015819;28;20396;-67
2023/08/21 09:47:54;;;;;;;5.43;2.00;;;22.50;99.90;;;;;;5022056;28;20065;-67
2023/08/21 09:50:22;;;;;;;5.88;2.45;;;22.50;99.90;;;;;;5025909;28;20029;-67
2023/08/21 09:52:48;;;;;;;6.72;1.83;;;22.50;99.90;;;;;;5032627;28;20117;-68
2023/08/21 09:55:15;;;;;;;6.60;1.85;;;22.60;99.90;;;;;;5032855;28;20096;-67
2023/08/21 09:57:41;;;;;;;3.35;1.70;;;22.50;99.90;;;;;;5026721;28;20037;-67
2023/08/21 10:00:15;;;;;;;4.15;1.70;;;22.60;99.90;;;;;;5028670;28;20506;-67
2023/08/21 10:02:45;;;;;;;4.32;1.60;;;22.70;99.90;;;;;;5032878;28;20048;-67
2023/08/21 10:05:12;;;;;;;6.68;1.75;;;22.80;99.90;;;;;;5000798;28;20084;-68
2023/08/21 10:07:39;;;;;;;4.18;1.45;;;22.80;99.90;;;;;;5029064;28;20087;-68
2023/08/21 10:10:05;;;;;;;4.55;1.77;;;22.90;99.90;;;;;;5032278;28;20044;-68
2023/08/21 10:12:31;;;;;;;5.38;1.98;;;23.00;99.90;;;;;;5021434;28;20034;-69
2023/08/21 10:14:57;;;;;;;5.65;1.90;;;23.00;99.90;;;;;;5029445;28;20041;-68
2023/08/21 10:17:22;;;;;;;5.47;1.90;;;23.10;99.90;;;;;;5032034;28;20134;-68
2023/08/21 10:19:52;;;;;;;6.57;2.03;;;23.10;99.90;;;;;;5014571;28;20492;-68
2023/08/21 10:22:44;;;;;;;4.05;1.75;;;23.20;99.90;;;;;;5022413;28;20069;-68
2023/08/21 10:25:25;;;;;;;3.75;1.60;;;23.30;99.90;;;;;;5032242;28;20088;-68
2023/08/21 10:28:03;;;;;;;5.93;2.10;;;23.40;99.90;;;;;;4998351;28;20052;-68
2023/08/21 10:30:29;;;;;;;7.70;1.92;;;23.30;99.90;;;;;;5008980;28;20041;-68
2023/08/21 10:32:57;;;;;;;6.50;1.77;;;23.30;99.90;;;;;;5028290;28;20084;-69
2023/08/21 10:35:32;;;;;;;2.42;1.60;;;23.50;99.90;;;;;;5027431;28;20484;-69
2023/08/21 10:38:08;;;;;;;7.55;2.10;;;23.50;99.90;;;;;;5026659;28;20040;-69
2023/08/21 10:40:35;;;;;;;4.97;1.95;;;23.60;99.90;;;;;;5005928;28;20398;-70
2023/08/21 10:43:02;;;;;;;7.78;1.90;;;23.70;99.90;;;;;;5031881;28;20459;-70
2023/08/21 10:45:29;;;;;;;5.32;1.83;;;23.80;99.90;;;;;;5032675;28;20037;-70
2023/08/21 10:48:01;;;;;;;4.90;1.85;;;24.00;99.90;;;;;;5026159;28;20538;-70
2023/08/21 10:50:27;;;;;;;4.65;1.85;;;24.00;99.90;;;;;;5004977;28;20068;-68
2023/08/21 10:52:53;;;;;;;3.42;1.73;;;24.00;99.90;;;;;;5031643;28;20497;-69
2023/08/21 10:55:20;;;;;;;3.88;1.77;;;24.00;99.90;;;;;;5020427;28;20038;-66
2023/08/21 10:57:50;;;;;;;4.40;1.88;;;24.10;99.90;;;;;;5021886;28;20037;-70
2023/08/21 11:00:18;;;;;;;4.53;1.83;;;24.10;99.90;;;;;;5014017;28;20038;-69
2023/08/21 11:02:45;;;;;;;3.63;1.65;;;24.10;99.90;;;;;;5008682;28;20544;-69
2023/08/21 11:05:13;;;;;;;4.47;2.08;;;24.20;99.90;;;;;;5008981;28;20094;-69
2023/08/21 11:07:39;;;;;;;4.13;1.80;;;24.10;99.90;;;;;;5030744;28;20116;-68
2023/08/21 11:10:08;;;;;;;4.95;1.73;;;24.20;99.90;;;;;;5032172;28;20041;-68
2023/08/21 11:12:34;;;;;;;4.43;2.13;;;24.30;99.90;;;;;;4999153;28;20056;-67
2023/08/21 11:14:59;;;;;;;5.45;1.90;;;24.40;99.90;;;;;;5014074;28;20419;-68
2023/08/21 11:17:25;;;;;;;5.80;1.85;;;24.40;99.90;;;;;;5029900;28;20396;-69
2023/08/21 11:19:51;;;;;;;5.15;2.00;;;24.50;99.90;;;;;;5024682;28;20396;-70
2023/08/21 11:22:17;;;;;;;5.68;2.30;;;24.60;99.90;;;;;;5020397;28;20042;-70
2023/08/21 11:24:45;;;;;;;4.03;2.03;;;24.70;99.90;;;;;;5031378;28;20057;-71
2023/08/21 11:27:13;;;;;;;4.30;1.80;;;24.80;99.90;;;;;;5026309;28;20033;-70
2023/08/21 11:29:44;;;;;;;4.38;1.70;;;24.90;99.90;;;;;;5019509;28;20038;-71
2023/08/21 11:32:24;;;;;;;3.10;1.50;;;24.80;99.90;;;;;;5030021;28;20033;-69
2023/08/21 11:34:53;;;;;;;4.78;1.88;;;24.80;98.50;;;;;;5031052;28;20041;-69
2023/08/21 11:37:23;;;;;;;4.57;1.80;;;24.90;99.90;;;;;;5007690;28;20045;-69
2023/08/21 11:39:54;;;;;;;5.13;1.88;;;24.90;99.90;;;;;;5013902;28;20125;-69
2023/08/21 11:42:21;;;;;;;4.47;2.10;;;25.00;99.90;;;;;;5006683;28;20480;-69
2023/08/21 11:44:53;;;;;;;5.95;2.17;;;25.00;99.70;;;;;;4999934;28;20419;-69
2023/08/21 11:47:20;;;;;;;4.70;1.90;;;25.10;99.60;;;;;;4999618;28;20123;-69
2023/08/21 11:49:48;;;;;;;6.28;1.85;;;25.30;99.90;;;;;;4997226;28;20088;-69
2023/08/21 11:52:18;;;;;;;2.90;1.60;;;25.30;99.20;;;;;;4994129;28;20041;-69
2023/08/21 11:54:50;;;;;;;5.63;1.70;;;25.30;99.00;;;;;;4995195;28;20404;-68
2023/08/21 11:57:16;;;;;;;4.32;1.70;;;25.30;98.90;;;;;;5021809;28;20041;-69
2023/08/21 11:59:42;;;;;;;6.45;2.00;;;25.30;99.00;;;;;;5030672;28;20114;-69
2023/08/21 12:02:09;;;;;;;4.18;1.90;;;25.40;98.70;;;;;;5008750;28;20037;-69
2023/08/21 12:04:35;;;;;;;3.50;1.70;;;25.40;98.50;;;;;;5012472;28;20128;-69
2023/08/21 12:07:01;;;;;;;3.65;1.70;;;25.50;98.30;;;;;;5004159;28;20144;-68
2023/08/21 12:09:27;;;;;;;7.45;2.00;;;25.40;98.80;;;;;;5026238;28;20112;-69
2023/08/21 12:11:52;;;;;;;3.83;1.95;;;25.30;99.00;;;;;;5017585;28;20046;-68
2023/08/21 12:14:18;;;;;;;4.45;2.17;;;25.00;98.90;;;;;;4997356;28;20091;-69
2023/08/21 12:16:44;;;;;;;4.55;1.95;;;24.90;99.40;;;;;;5010383;28;20042;-69
2023/08/21 12:19:11;;;;;;;4.70;1.95;;;24.70;99.50;;;;;;5002886;28;20042;-69
2023/08/21 12:21:37;;;;;;;3.08;1.75;;;24.80;99.80;;;;;;5038726;28;20034;-69
2023/08/21 12:24:05;;;;;;;5.05;1.90;;;25.00;99.60;;;;;;5030841;28;20045;-69
2023/08/21 12:26:30;;;;;;;5.82;1.98;;;25.30;99.90;;;;;;5024110;28;20029;-68
2023/08/21 12:28:56;;;;;;;6.63;2.00;;;25.50;99.20;;;;;;5028802;28;20040;-68
2023/08/21 12:31:22;;;;;;;3.42;1.75;;;25.60;98.60;;;;;;5030685;28;20037;-69
2023/08/21 12:33:47;;;;;;;3.15;1.77;;;25.60;98.20;;;;;;5019517;28;20042;-69
2023/08/21 12:36:13;;;;;;;5.25;1.60;;;25.70;97.80;;;;;;5000478;28;20049;-69
2023/08/21 12:38:38;;;;;;;5.40;1.83;;;25.80;97.70;;;;;;5030080;28;20403;-69
2023/08/21 12:41:04;;;;;;;4.53;1.38;;;26.00;97.50;;;;;;5013894;28;20065;-69
2023/08/21 12:43:31;;;;;;;7.05;1.88;;;26.00;97.00;;;;;;5028412;28;20045;-70
2023/08/21 12:45:56;;;;;;;4.78;1.58;;;26.00;97.20;;;;;;5034108;28;20045;-69
2023/08/21 12:48:22;;;;;;;5.07;1.50;;;26.10;96.40;;;;;;5034084;28;20306;-69
2023/08/21 12:50:48;;;;;;;5.35;2.15;;;26.10;95.90;;;;;;5009553;28;20048;-69
2023/08/21 12:53:13;;;;;;;3.50;1.60;;;26.10;95.00;;;;;;5028305;28;20048;-69
2023/08/21 12:55:39;;;;;;;3.25;1.60;;;26.20;95.60;;;;;;5016059;28;20045;-69
2023/08/21 12:58:05;;;;;;;3.10;1.60;;;26.30;95.20;;;;;;5015619;28;20045;-69
2023/08/21 13:00:32;;;;;;;4.07;1.42;;;26.40;95.50;;;;;;5029999;28;20106;-69
2023/08/21 13:02:58;;;;;;;3.83;1.58;;;26.40;94.80;;;;;;5005659;28;20119;-68
2023/08/21 13:05:24;;;;;;;4.55;1.50;;;25.90;94.60;;;;;;5026308;28;20156;-68
2023/08/21 13:07:49;;;;;;;3.42;1.45;;;25.70;94.40;;;;;;5015084;28;20500;-69
2023/08/21 13:10:15;;;;;;;5.35;1.50;;;25.80;94.40;;;;;;5022377;28;20032;-69